sensor_id;sensor_type;location;lat;lon;timestamp;temperature;humidity
44271;DHT22;29963;44.594;11.368;2023-07-28T00:02:07;26.00;99.90
44271;DHT22;29963;44.594;11.368;2023-07-28T00:04:36;25.90;99.90
44271;DHT22;29963;44.594;11.368;2023-07-28T00:07:03;25.80;99.90
44271;DHT22;29963;44.594;11.368;2023-07-28T00:09:29;25.80;99.90
44271;DHT22;29963;44.594;11.368;2023-07-28T00:11:59;25.80;99.90
44271;DHT22;29963;44.594;11.368;2023-07-28T00:14:26;25.80;99.90
44271;DHT22;29963;44.594;11.368;2023-07-28T00:16:55;25.70;99.90
44271;DHT22;29963;44.594;11.368;2023-07-28T00:19:22;25.60;99.90
44271;DHT22;29963;44.594;11.368;2023-07-28T00:21:48;25.60;99.90
44271;DHT22;29963;44.594;11.368;2023-07-28T00:24:14;25.50;99.90
44271;DHT22;29963;44.594;11.368;2023-07-28T00:26:40;25.40;99.90
44271;DHT22;29963;44.594;11.368;2023-07-28T00:29:06;25.30;99.90
44271;DHT22;29963;44.594;11.368;2023-07-28T00:31:33;25.20;99.90
44271;DHT22;29963;44.594;11.368;2023-07-28T00:33:58;25.10;99.90
44271;DHT22;29963;44.594;11.368;2023-07-28T00:36:24;25.10;99.90
44271;DHT22;29963;44.594;11.368;2023-07-28T00:38:50;25.10;99.90
44271;DHT22;29963;44.594;11.368;2023-07-28T00:41:16;25.10;99.90
44271;DHT22;29963;44.594;11.368;2023-07-28T00:43:41;25.20;99.90
44271;DHT22;29963;44.594;11.368;2023-07-28T00:46:08;25.10;99.90
44271;DHT22;29963;44.594;11.368;2023-07-28T00:48:34;25.10;99.90
44271;DHT22;29963;44.594;11.368;2023-07-28T00:51:00;25.00;99.90
44271;DHT22;29963;44.594;11.368;2023-07-28T00:53:26;24.80;99.90
44271;DHT22;29963;44.594;11.368;2023-07-28T00:55:52;24.70;99.90
44271;DHT22;29963;44.594;11.368;2023-07-28T00:58:18;24.60;99.90
44271;DHT22;29963;44.594;11.368;2023-07-28T01:00:44;24.50;99.90
44271;DHT22;29963;44.594;11.368;2023-07-28T01:03:10;24.50;99.90
44271;DHT22;29963;44.594;11.368;2023-07-28T01:06:24;24.30;99.90
44271;DHT22;29963;44.594;11.368;2023-07-28T01:09:09;24.00;99.90
44271;DHT22;29963;44.594;11.368;2023-07-28T01:11:37;23.80;99.90
44271;DHT22;29963;44.594;11.368;2023-07-28T01:14:02;23.60;99.90
44271;DHT22;29963;44.594;11.368;2023-07-28T01:16:28;23.50;99.90
44271;DHT22;29963;44.594;11.368;2023-07-28T01:18:54;23.50;99.90
44271;DHT22;29963;44.594;11.368;2023-07-28T01:21:26;23.50;99.90
44271;DHT22;29963;44.594;11.368;2023-07-28T01:24:06;23.40;99.90
44271;DHT22;29963;44.594;11.368;2023-07-28T01:26:39;23.30;99.90
44271;DHT22;29963;44.594;11.368;2023-07-28T01:29:05;23.10;99.90
44271;DHT22;29963;44.594;11.368;2023-07-28T01:31:31;23.00;99.90
44271;DHT22;29963;44.594;11.368;2023-07-28T01:33:57;22.90;99.90
44271;DHT22;29963;44.594;11.368;2023-07-28T01:36:23;22.80;99.90
44271;DHT22;29963;44.594;11.368;2023-07-28T01:38:49;22.80;99.90
44271;DHT22;29963;44.594;11.368;2023-07-28T01:41:14;22.90;99.90
44271;DHT22;29963;44.594;11.368;2023-07-28T01:43:40;22.80;99.90
44271;DHT22;29963;44.594;11.368;2023-07-28T01:46:07;22.80;99.90
44271;DHT22;29963;44.594;11.368;2023-07-28T01:48:33;22.80;99.90
44271;DHT22;29963;44.594;11.368;2023-07-28T01:50:58;22.80;99.90
44271;DHT22;29963;44.594;11.368;2023-07-28T01:53:24;22.80;99.90
44271;DHT22;29963;44.594;11.368;2023-07-28T01:55:50;22.80;99.90
44271;DHT22;29963;44.594;11.368;2023-07-28T01:58:15;22.60;99.90
44271;DHT22;29963;44.594;11.368;2023-07-28T02:00:41;22.50;99.90
44271;DHT22;29963;44.594;11.368;2023-07-28T02:03:07;22.50;99.90
44271;DHT22;29963;44.594;11.368;2023-07-28T02:05:32;22.50;99.90
44271;DHT22;29963;44.594;11.368;2023-07-28T02:07:58;22.40;99.90
44271;DHT22;29963;44.594;11.368;2023-07-28T02:10:25;22.30;99.90
44271;DHT22;29963;44.594;11.368;2023-07-28T02:12:51;22.20;99.90
44271;DHT22;29963;44.594;11.368;2023-07-28T02:15:17;22.20;99.90
44271;DHT22;29963;44.594;11.368;2023-07-28T02:17:42;22.10;99.90
44271;DHT22;29963;44.594;11.368;2023-07-28T02:20:08;22.20;99.90
44271;DHT22;29963;44.594;11.368;2023-07-28T02:22:41;22.20;99.90
44271;DHT22;29963;44.594;11.368;2023-07-28T02:25:07;22.20;99.90
44271;DHT22;29963;44.594;11.368;2023-07-28T02:27:33;22.10;99.90
44271;DHT22;29963;44.594;11.368;2023-07-28T02:29:59;22.10;99.90
44271;DHT22;29963;44.594;11.368;2023-07-28T02:32:25;22.10;99.90
44271;DHT22;29963;44.594;11.368;2023-07-28T02:34:51;22.10;99.90
44271;DHT22;29963;44.594;11.368;2023-07-28T02:37:16;22.10;99.90
44271;DHT22;29963;44.594;11.368;2023-07-28T02:39:42;22.00;99.90
44271;DHT22;29963;44.594;11.368;2023-07-28T02:42:08;22.00;99.90
44271;DHT22;29963;44.594;11.368;2023-07-28T02:44:34;22.10;99.90
44271;DHT22;29963;44.594;11.368;2023-07-28T02:46:59;22.20;99.90
44271;DHT22;29963;44.594;11.368;2023-07-28T02:49:25;22.20;99.90
44271;DHT22;29963;44.594;11.368;2023-07-28T02:51:50;22.20;99.90
44271;DHT22;29963;44.594;11.368;2023-07-28T02:54:16;22.30;99.90
44271;DHT22;29963;44.594;11.368;2023-07-28T02:56:41;22.30;99.90
44271;DHT22;29963;44.594;11.368;2023-07-28T02:59:07;22.30;99.90
44271;DHT22;29963;44.594;11.368;2023-07-28T03:01:33;22.30;99.90
44271;DHT22;29963;44.594;11.368;2023-07-28T03:04:02;22.30;99.90
44271;DHT22;29963;44.594;11.368;2023-07-28T03:06:28;22.20;99.90
44271;DHT22;29963;44.594;11.368;2023-07-28T03:08:54;22.00;99.90
44271;DHT22;29963;44.594;11.368;2023-07-28T03:11:19;21.90;99.90
44271;DHT22;29963;44.594;11.368;2023-07-28T03:13:45;21.80;99.90
44271;DHT22;29963;44.594;11.368;2023-07-28T03:16:11;21.70;99.90
44271;DHT22;29963;44.594;11.368;2023-07-28T03:18:37;21.50;99.90
44271;DHT22;29963;44.594;11.368;2023-07-28T03:21:02;21.50;99.90
44271;DHT22;29963;44.594;11.368;2023-07-28T03:23:28;21.50;99.90
44271;DHT22;29963;44.594;11.368;2023-07-28T03:25:54;21.50;99.90
44271;DHT22;29963;44.594;11.368;2023-07-28T03:28:20;21.60;99.90
44271;DHT22;29963;44.594;11.368;2023-07-28T03:30:46;21.60;99.90
44271;DHT22;29963;44.594;11.368;2023-07-28T03:33:11;21.70;99.90
44271;DHT22;29963;44.594;11.368;2023-07-28T03:35:37;21.70;99.90
44271;DHT22;29963;44.594;11.368;2023-07-28T03:38:02;21.70;99.90
44271;DHT22;29963;44.594;11.368;2023-07-28T03:40:28;21.80;99.90
44271;DHT22;29963;44.594;11.368;2023-07-28T03:42:54;21.80;99.90
44271;DHT22;29963;44.594;11.368;2023-07-28T03:45:20;21.70;99.90
44271;DHT22;29963;44.594;11.368;2023-07-28T03:47:45;21.70;99.90
44271;DHT22;29963;44.594;11.368;2023-07-28T03:50:11;21.70;99.90
44271;DHT22;29963;44.594;11.368;2023-07-28T03:52:37;21.70;99.90
44271;DHT22;29963;44.594;11.368;2023-07-28T03:55:03;21.80;99.90
44271;DHT22;29963;44.594;11.368;2023-07-28T03:57:28;21.80;99.90
44271;DHT22;29963;44.594;11.368;2023-07-28T03:59:54;21.80;99.90
44271;DHT22;29963;44.594;11.368;2023-07-28T04:02:19;21.60;99.90
44271;DHT22;29963;44.594;11.368;2023-07-28T04:04:45;21.40;99.90
44271;DHT22;29963;44.594;11.368;2023-07-28T04:07:10;21.20;99.90
44271;DHT22;29963;44.594;11.368;2023-07-28T04:09:36;21.10;99.90
44271;DHT22;29963;44.594;11.368;2023-07-28T04:12:02;21.00;99.90
44271;DHT22;29963;44.594;11.368;2023-07-28T04:14:27;21.00;99.90
44271;DHT22;29963;44.594;11.368;2023-07-28T04:16:53;20.90;99.90
44271;DHT22;29963;44.594;11.368;2023-07-28T04:19:19;20.90;99.90
44271;DHT22;29963;44.594;11.368;2023-07-28T04:21:44;20.90;99.90
44271;DHT22;29963;44.594;11.368;2023-07-28T04:24:10;21.00;99.90
44271;DHT22;29963;44.594;11.368;2023-07-28T04:26:36;21.00;99.90
44271;DHT22;29963;44.594;11.368;2023-07-28T04:29:02;21.00;99.90
44271;DHT22;29963;44.594;11.368;2023-07-28T04:31:28;21.00;99.90
44271;DHT22;29963;44.594;11.368;2023-07-28T04:33:53;21.00;99.90
44271;DHT22;29963;44.594;11.368;2023-07-28T04:36:19;21.00;99.90
44271;DHT22;29963;44.594;11.368;2023-07-28T04:38:45;21.10;99.90
44271;DHT22;29963;44.594;11.368;2023-07-28T04:41:10;21.30;99.90
44271;DHT22;29963;44.594;11.368;2023-07-28T04:43:36;21.40;99.90
44271;DHT22;29963;44.594;11.368;2023-07-28T04:46:01;21.50;99.90
44271;DHT22;29963;44.594;11.368;2023-07-28T04:48:27;21.50;99.90
44271;DHT22;29963;44.594;11.368;2023-07-28T04:50:53;21.50;99.90
44271;DHT22;29963;44.594;11.368;2023-07-28T04:53:19;21.50;99.90
44271;DHT22;29963;44.594;11.368;2023-07-28T04:55:45;21.40;99.90
44271;DHT22;29963;44.594;11.368;2023-07-28T04:58:10;21.40;99.90
44271;DHT22;29963;44.594;11.368;2023-07-28T05:00:36;21.50;99.90
44271;DHT22;29963;44.594;11.368;2023-07-28T05:03:02;21.50;99.90
44271;DHT22;29963;44.594;11.368;2023-07-28T05:05:29;21.50;99.90
44271;DHT22;29963;44.594;11.368;2023-07-28T05:07:55;21.40;99.90
44271;DHT22;29963;44.594;11.368;2023-07-28T05:10:20;21.30;99.90
44271;DHT22;29963;44.594;11.368;2023-07-28T05:12:46;21.20;99.90
44271;DHT22;29963;44.594;11.368;2023-07-28T05:15:14;21.30;99.90
44271;DHT22;29963;44.594;11.368;2023-07-28T05:17:40;21.30;99.90
44271;DHT22;29963;44.594;11.368;2023-07-28T05:20:06;21.30;99.90
44271;DHT22;29963;44.594;11.368;2023-07-28T05:22:32;21.30;99.90
44271;DHT22;29963;44.594;11.368;2023-07-28T05:24:57;21.30;99.90
44271;DHT22;29963;44.594;11.368;2023-07-28T05:27:23;21.20;99.90
44271;DHT22;29963;44.594;11.368;2023-07-28T05:29:48;21.20;99.90
44271;DHT22;29963;44.594;11.368;2023-07-28T05:32:14;21.30;99.90
44271;DHT22;29963;44.594;11.368;2023-07-28T05:34:43;21.30;99.90
44271;DHT22;29963;44.594;11.368;2023-07-28T05:37:09;21.40;99.90
44271;DHT22;29963;44.594;11.368;2023-07-28T05:39:35;21.50;99.90
44271;DHT22;29963;44.594;11.368;2023-07-28T05:42:01;21.50;99.90
44271;DHT22;29963;44.594;11.368;2023-07-28T05:44:26;21.50;99.90
44271;DHT22;29963;44.594;11.368;2023-07-28T05:46:52;21.50;99.90
44271;DHT22;29963;44.594;11.368;2023-07-28T05:49:18;21.60;99.90
44271;DHT22;29963;44.594;11.368;2023-07-28T05:51:43;21.60;99.90
44271;DHT22;29963;44.594;11.368;2023-07-28T05:54:09;21.70;99.90
44271;DHT22;29963;44.594;11.368;2023-07-28T05:56:34;21.80;99.90
44271;DHT22;29963;44.594;11.368;2023-07-28T05:59:00;21.90;99.90
44271;DHT22;29963;44.594;11.368;2023-07-28T06:01:45;22.10;99.90
44271;DHT22;29963;44.594;11.368;2023-07-28T06:04:10;22.20;99.90
44271;DHT22;29963;44.594;11.368;2023-07-28T06:06:36;22.10;99.90
44271;DHT22;29963;44.594;11.368;2023-07-28T06:09:02;22.30;99.90
44271;DHT22;29963;44.594;11.368;2023-07-28T06:11:27;22.40;99.90
44271;DHT22;29963;44.594;11.368;2023-07-28T06:13:53;22.50;99.90
44271;DHT22;29963;44.594;11.368;2023-07-28T06:16:19;22.60;99.90
44271;DHT22;29963;44.594;11.368;2023-07-28T06:18:44;22.60;99.90
44271;DHT22;29963;44.594;11.368;2023-07-28T06:21:10;22.60;99.90
44271;DHT22;29963;44.594;11.368;2023-07-28T06:23:35;22.60;99.90
44271;DHT22;29963;44.594;11.368;2023-07-28T06:26:01;22.60;99.90
44271;DHT22;29963;44.594;11.368;2023-07-28T06:28:26;22.60;99.90
44271;DHT22;29963;44.594;11.368;2023-07-28T06:30:56;22.60;99.90
44271;DHT22;29963;44.594;11.368;2023-07-28T06:33:22;22.70;99.90
44271;DHT22;29963;44.594;11.368;2023-07-28T06:35:47;22.80;99.90
44271;DHT22;29963;44.594;11.368;2023-07-28T06:38:13;22.80;99.90
44271;DHT22;29963;44.594;11.368;2023-07-28T06:40:39;22.80;99.90
44271;DHT22;29963;44.594;11.368;2023-07-28T06:43:04;22.80;99.90
44271;DHT22;29963;44.594;11.368;2023-07-28T06:45:30;22.90;99.90
44271;DHT22;29963;44.594;11.368;2023-07-28T06:47:55;22.90;99.90
44271;DHT22;29963;44.594;11.368;2023-07-28T06:50:21;22.90;99.90
44271;DHT22;29963;44.594;11.368;2023-07-28T06:52:47;23.10;99.90
44271;DHT22;29963;44.594;11.368;2023-07-28T06:55:16;23.10;99.90
44271;DHT22;29963;44.594;11.368;2023-07-28T06:57:42;23.20;99.90
44271;DHT22;29963;44.594;11.368;2023-07-28T07:00:08;23.30;99.90
44271;DHT22;29963;44.594;11.368;2023-07-28T07:02:35;23.40;99.90
44271;DHT22;29963;44.594;11.368;2023-07-28T07:05:01;23.50;99.90
44271;DHT22;29963;44.594;11.368;2023-07-28T07:07:26;23.20;99.90
44271;DHT22;29963;44.594;11.368;2023-07-28T07:09:52;23.70;99.90
44271;DHT22;29963;44.594;11.368;2023-07-28T07:12:17;23.70;99.90
44271;DHT22;29963;44.594;11.368;2023-07-28T07:14:44;23.80;99.90
44271;DHT22;29963;44.594;11.368;2023-07-28T07:17:10;23.80;99.90
44271;DHT22;29963;44.594;11.368;2023-07-28T07:19:36;23.90;99.90
44271;DHT22;29963;44.594;11.368;2023-07-28T07:22:01;24.00;99.90
44271;DHT22;29963;44.594;11.368;2023-07-28T07:24:28;24.00;99.90
44271;DHT22;29963;44.594;11.368;2023-07-28T07:26:54;24.00;99.90
44271;DHT22;29963;44.594;11.368;2023-07-28T07:29:19;24.10;99.90
44271;DHT22;29963;44.594;11.368;2023-07-28T07:31:45;24.10;99.90
44271;DHT22;29963;44.594;11.368;2023-07-28T07:34:10;24.20;99.90
44271;DHT22;29963;44.594;11.368;2023-07-28T07:36:36;24.20;99.90
44271;DHT22;29963;44.594;11.368;2023-07-28T07:39:02;24.20;99.90
44271;DHT22;29963;44.594;11.368;2023-07-28T07:41:27;24.20;99.90
44271;DHT22;29963;44.594;11.368;2023-07-28T07:43:54;24.30;99.90
44271;DHT22;29963;44.594;11.368;2023-07-28T07:46:20;24.30;99.90
44271;DHT22;29963;44.594;11.368;2023-07-28T07:48:46;24.40;99.90
44271;DHT22;29963;44.594;11.368;2023-07-28T07:51:12;24.50;99.90
44271;DHT22;29963;44.594;11.368;2023-07-28T07:53:38;24.50;99.90
44271;DHT22;29963;44.594;11.368;2023-07-28T07:56:04;24.40;99.90
44271;DHT22;29963;44.594;11.368;2023-07-28T07:58:30;24.50;99.90
44271;DHT22;29963;44.594;11.368;2023-07-28T08:00:56;24.50;99.90
44271;DHT22;29963;44.594;11.368;2023-07-28T08:03:22;24.50;99.90
44271;DHT22;29963;44.594;11.368;2023-07-28T08:05:47;24.60;99.90
44271;DHT22;29963;44.594;11.368;2023-07-28T08:08:14;24.60;99.90
44271;DHT22;29963;44.594;11.368;2023-07-28T08:10:43;24.60;99.90
44271;DHT22;29963;44.594;11.368;2023-07-28T08:13:09;24.60;99.90
44271;DHT22;29963;44.594;11.368;2023-07-28T08:15:35;24.60;99.90
44271;DHT22;29963;44.594;11.368;2023-07-28T08:18:00;24.70;99.90
44271;DHT22;29963;44.594;11.368;2023-07-28T08:20:26;24.80;99.90
44271;DHT22;29963;44.594;11.368;2023-07-28T08:22:52;24.70;99.90
44271;DHT22;29963;44.594;11.368;2023-07-28T08:25:18;24.80;99.90
44271;DHT22;29963;44.594;11.368;2023-07-28T08:27:44;24.80;99.90
44271;DHT22;29963;44.594;11.368;2023-07-28T08:30:10;24.80;99.90
44271;DHT22;29963;44.594;11.368;2023-07-28T08:32:36;24.80;99.90
44271;DHT22;29963;44.594;11.368;2023-07-28T08:35:02;25.00;99.90
44271;DHT22;29963;44.594;11.368;2023-07-28T08:37:28;25.10;99.90
44271;DHT22;29963;44.594;11.368;2023-07-28T08:39:54;25.10;99.90
44271;DHT22;29963;44.594;11.368;2023-07-28T08:42:21;25.20;99.90
44271;DHT22;29963;44.594;11.368;2023-07-28T08:44:47;25.30;99.90
44271;DHT22;29963;44.594;11.368;2023-07-28T08:47:13;25.30;99.90
44271;DHT22;29963;44.594;11.368;2023-07-28T08:49:38;25.30;99.90
44271;DHT22;29963;44.594;11.368;2023-07-28T08:52:04;25.30;99.90
44271;DHT22;29963;44.594;11.368;2023-07-28T08:54:30;25.30;99.90
44271;DHT22;29963;44.594;11.368;2023-07-28T08:56:59;25.30;99.90
44271;DHT22;29963;44.594;11.368;2023-07-28T08:59:26;25.30;99.90
44271;DHT22;29963;44.594;11.368;2023-07-28T09:01:56;25.30;99.90
44271;DHT22;29963;44.594;11.368;2023-07-28T09:04:23;25.30;99.90
44271;DHT22;29963;44.594;11.368;2023-07-28T09:06:50;25.30;99.90
44271;DHT22;29963;44.594;11.368;2023-07-28T09:09:17;25.30;99.90
44271;DHT22;29963;44.594;11.368;2023-07-28T09:11:49;25.50;99.90
44271;DHT22;29963;44.594;11.368;2023-07-28T09:14:16;25.60;99.90
44271;DHT22;29963;44.594;11.368;2023-07-28T09:16:43;25.50;99.90
44271;DHT22;29963;44.594;11.368;2023-07-28T09:19:09;25.40;99.90
44271;DHT22;29963;44.594;11.368;2023-07-28T09:21:35;25.50;99.90
44271;DHT22;29963;44.594;11.368;2023-07-28T09:24:06;25.70;99.90
44271;DHT22;29963;44.594;11.368;2023-07-28T09:26:43;25.70;99.90
44271;DHT22;29963;44.594;11.368;2023-07-28T09:29:28;25.60;99.90
44271;DHT22;29963;44.594;11.368;2023-07-28T09:32:04;25.70;99.90
44271;DHT22;29963;44.594;11.368;2023-07-28T09:34:30;25.70;99.90
44271;DHT22;29963;44.594;11.368;2023-07-28T09:36:57;25.70;99.90
44271;DHT22;29963;44.594;11.368;2023-07-28T09:39:23;25.80;99.90
44271;DHT22;29963;44.594;11.368;2023-07-28T09:41:49;25.80;99.90
44271;DHT22;29963;44.594;11.368;2023-07-28T09:44:16;25.80;99.90
44271;DHT22;29963;44.594;11.368;2023-07-28T09:47:02;25.80;99.90
44271;DHT22;29963;44.594;11.368;2023-07-28T09:49:33;25.80;99.80
44271;DHT22;29963;44.594;11.368;2023-07-28T09:52:04;25.90;99.90
44271;DHT22;29963;44.594;11.368;2023-07-28T09:54:30;26.00;99.90
44271;DHT22;29963;44.594;11.368;2023-07-28T09:56:59;25.90;99.90
44271;DHT22;29963;44.594;11.368;2023-07-28T09:59:38;25.90;99.90
44271;DHT22;29963;44.594;11.368;2023-07-28T10:02:05;26.00;99.90
44271;DHT22;29963;44.594;11.368;2023-07-28T10:04:34;26.00;99.90
44271;DHT22;29963;44.594;11.368;2023-07-28T10:07:00;26.00;99.90
44271;DHT22;29963;44.594;11.368;2023-07-28T10:09:28;26.20;99.90
44271;DHT22;29963;44.594;11.368;2023-07-28T10:11:56;26.30;99.60
44271;DHT22;29963;44.594;11.368;2023-07-28T10:14:29;26.40;99.90
44271;DHT22;29963;44.594;11.368;2023-07-28T10:16:59;26.50;99.90
44271;DHT22;29963;44.594;11.368;2023-07-28T10:19:27;26.40;99.10
44271;DHT22;29963;44.594;11.368;2023-07-28T10:22:07;26.50;98.70
44271;DHT22;29963;44.594;11.368;2023-07-28T10:24:55;26.50;98.30
44271;DHT22;29963;44.594;11.368;2023-07-28T10:27:31;26.50;98.10
44271;DHT22;29963;44.594;11.368;2023-07-28T10:30:01;26.50;98.50
44271;DHT22;29963;44.594;11.368;2023-07-28T10:32:38;26.50;98.60
44271;DHT22;29963;44.594;11.368;2023-07-28T10:35:27;26.50;98.10
44271;DHT22;29963;44.594;11.368;2023-07-28T10:37:54;26.70;99.00
44271;DHT22;29963;44.594;11.368;2023-07-28T10:40:29;26.70;98.90
44271;DHT22;29963;44.594;11.368;2023-07-28T10:43:02;26.80;98.60
44271;DHT22;29963;44.594;11.368;2023-07-28T10:45:31;26.90;97.80
44271;DHT22;29963;44.594;11.368;2023-07-28T10:47:58;26.80;98.30
44271;DHT22;29963;44.594;11.368;2023-07-28T10:50:30;26.80;99.20
44271;DHT22;29963;44.594;11.368;2023-07-28T10:52:56;26.80;99.40
44271;DHT22;29963;44.594;11.368;2023-07-28T10:55:24;26.90;99.50
44271;DHT22;29963;44.594;11.368;2023-07-28T10:57:51;26.90;98.50
44271;DHT22;29963;44.594;11.368;2023-07-28T11:00:19;26.90;98.60
44271;DHT22;29963;44.594;11.368;2023-07-28T11:02:47;27.00;98.30
44271;DHT22;29963;44.594;11.368;2023-07-28T11:05:23;27.10;97.90
44271;DHT22;29963;44.594;11.368;2023-07-28T11:07:51;27.20;96.60
44271;DHT22;29963;44.594;11.368;2023-07-28T11:10:18;27.20;96.50
44271;DHT22;29963;44.594;11.368;2023-07-28T11:12:45;27.30;96.60
44271;DHT22;29963;44.594;11.368;2023-07-28T11:15:13;27.40;95.60
44271;DHT22;29963;44.594;11.368;2023-07-28T11:17:41;27.40;95.40
44271;DHT22;29963;44.594;11.368;2023-07-28T11:20:27;27.40;95.40
44271;DHT22;29963;44.594;11.368;2023-07-28T11:23:00;27.40;95.40
44271;DHT22;29963;44.594;11.368;2023-07-28T11:25:28;27.50;95.30
44271;DHT22;29963;44.594;11.368;2023-07-28T11:27:55;27.50;95.60
44271;DHT22;29963;44.594;11.368;2023-07-28T11:30:21;27.60;94.00
44271;DHT22;29963;44.594;11.368;2023-07-28T11:32:49;27.60;92.70
44271;DHT22;29963;44.594;11.368;2023-07-28T11:35:16;27.60;93.30
44271;DHT22;29963;44.594;11.368;2023-07-28T11:37:43;27.50;92.80
44271;DHT22;29963;44.594;11.368;2023-07-28T11:40:10;27.60;93.20
44271;DHT22;29963;44.594;11.368;2023-07-28T11:42:41;27.60;93.10
44271;DHT22;29963;44.594;11.368;2023-07-28T11:45:09;27.50;92.60
44271;DHT22;29963;44.594;11.368;2023-07-28T11:47:35;27.60;93.20
44271;DHT22;29963;44.594;11.368;2023-07-28T11:50:01;27.60;91.30
44271;DHT22;29963;44.594;11.368;2023-07-28T11:52:35;27.70;92.40
44271;DHT22;29963;44.594;11.368;2023-07-28T11:55:04;27.70;92.30
44271;DHT22;29963;44.594;11.368;2023-07-28T11:57:30;27.80;92.00
44271;DHT22;29963;44.594;11.368;2023-07-28T11:59:57;28.00;91.30
44271;DHT22;29963;44.594;11.368;2023-07-28T12:02:32;28.00;91.10
44271;DHT22;29963;44.594;11.368;2023-07-28T12:04:59;28.10;90.20
44271;DHT22;29963;44.594;11.368;2023-07-28T12:07:29;28.20;88.40
44271;DHT22;29963;44.594;11.368;2023-07-28T12:09:55;28.30;90.00
44271;DHT22;29963;44.594;11.368;2023-07-28T12:12:26;28.30;86.20
44271;DHT22;29963;44.594;11.368;2023-07-28T12:14:54;28.30;88.10
44271;DHT22;29963;44.594;11.368;2023-07-28T12:17:22;28.30;88.10
44271;DHT22;29963;44.594;11.368;2023-07-28T12:20:08;28.30;89.40
44271;DHT22;29963;44.594;11.368;2023-07-28T12:22:38;28.40;89.90
44271;DHT22;29963;44.594;11.368;2023-07-28T12:25:04;28.50;89.00
44271;DHT22;29963;44.594;11.368;2023-07-28T12:27:30;28.50;89.70
44271;DHT22;29963;44.594;11.368;2023-07-28T12:29:56;28.50;90.30
44271;DHT22;29963;44.594;11.368;2023-07-28T12:32:22;28.60;90.80
44271;DHT22;29963;44.594;11.368;2023-07-28T12:34:51;28.70;90.60
44271;DHT22;29963;44.594;11.368;2023-07-28T12:37:17;28.80;86.80
44271;DHT22;29963;44.594;11.368;2023-07-28T12:39:43;28.80;83.80
44271;DHT22;29963;44.594;11.368;2023-07-28T12:42:10;28.80;84.90
44271;DHT22;29963;44.594;11.368;2023-07-28T12:44:37;28.60;84.70
44271;DHT22;29963;44.594;11.368;2023-07-28T12:47:03;28.60;85.60
44271;DHT22;29963;44.594;11.368;2023-07-28T12:49:30;28.60;85.80
44271;DHT22;29963;44.594;11.368;2023-07-28T12:51:57;28.60;86.30
44271;DHT22;29963;44.594;11.368;2023-07-28T12:54:24;28.70;85.50
44271;DHT22;29963;44.594;11.368;2023-07-28T12:56:51;28.80;86.00
44271;DHT22;29963;44.594;11.368;2023-07-28T12:59:17;28.90;85.00
44271;DHT22;29963;44.594;11.368;2023-07-28T13:01:43;29.00;84.50
44271;DHT22;29963;44.594;11.368;2023-07-28T13:04:09;29.00;84.70
44271;DHT22;29963;44.594;11.368;2023-07-28T13:06:35;29.00;82.50
44271;DHT22;29963;44.594;11.368;2023-07-28T13:09:02;29.00;84.00
44271;DHT22;29963;44.594;11.368;2023-07-28T13:11:29;29.00;84.40
44271;DHT22;29963;44.594;11.368;2023-07-28T13:13:54;29.00;84.30
44271;DHT22;29963;44.594;11.368;2023-07-28T13:16:20;29.00;83.80
44271;DHT22;29963;44.594;11.368;2023-07-28T13:18:46;29.10;81.90
44271;DHT22;29963;44.594;11.368;2023-07-28T13:21:12;29.20;81.60
44271;DHT22;29963;44.594;11.368;2023-07-28T13:23:38;29.30;82.70
44271;DHT22;29963;44.594;11.368;2023-07-28T13:26:04;29.30;83.20
44271;DHT22;29963;44.594;11.368;2023-07-28T13:28:30;29.40;84.30
44271;DHT22;29963;44.594;11.368;2023-07-28T13:30:56;29.50;83.80
44271;DHT22;29963;44.594;11.368;2023-07-28T13:33:21;29.60;83.60
44271;DHT22;29963;44.594;11.368;2023-07-28T13:35:47;29.70;83.90
44271;DHT22;29963;44.594;11.368;2023-07-28T13:38:13;30.00;85.40
44271;DHT22;29963;44.594;11.368;2023-07-28T13:40:38;30.20;81.60
44271;DHT22;29963;44.594;11.368;2023-07-28T13:43:04;30.40;79.60
44271;DHT22;29963;44.594;11.368;2023-07-28T13:45:30;30.30;78.40
44271;DHT22;29963;44.594;11.368;2023-07-28T13:47:55;30.30;78.60
44271;DHT22;29963;44.594;11.368;2023-07-28T13:50:21;30.30;78.60
44271;DHT22;29963;44.594;11.368;2023-07-28T13:52:46;30.20;79.10
44271;DHT22;29963;44.594;11.368;2023-07-28T13:55:12;30.20;80.10
44271;DHT22;29963;44.594;11.368;2023-07-28T13:57:38;30.20;79.90
44271;DHT22;29963;44.594;11.368;2023-07-28T14:00:05;30.30;80.50
44271;DHT22;29963;44.594;11.368;2023-07-28T14:02:37;30.50;79.70
44271;DHT22;29963;44.594;11.368;2023-07-28T14:05:03;30.70;80.10
44271;DHT22;29963;44.594;11.368;2023-07-28T14:07:29;31.00;79.40
44271;DHT22;29963;44.594;11.368;2023-07-28T14:09:55;31.10;78.70
44271;DHT22;29963;44.594;11.368;2023-07-28T14:12:20;31.30;80.10
44271;DHT22;29963;44.594;11.368;2023-07-28T14:14:46;31.60;76.60
44271;DHT22;29963;44.594;11.368;2023-07-28T14:17:12;31.70;75.90
44271;DHT22;29963;44.594;11.368;2023-07-28T14:19:38;31.60;76.50
44271;DHT22;29963;44.594;11.368;2023-07-28T14:22:05;31.80;77.60
44271;DHT22;29963;44.594;11.368;2023-07-28T14:24:30;31.90;78.40
44271;DHT22;29963;44.594;11.368;2023-07-28T14:26:56;32.10;78.70
44271;DHT22;29963;44.594;11.368;2023-07-28T14:29:21;32.20;74.40
44271;DHT22;29963;44.594;11.368;2023-07-28T14:31:47;32.20;75.00
44271;DHT22;29963;44.594;11.368;2023-07-28T14:34:13;32.20;74.70
44271;DHT22;29963;44.594;11.368;2023-07-28T14:36:39;32.10;73.60
44271;DHT22;29963;44.594;11.368;2023-07-28T14:39:04;31.80;74.00
44271;DHT22;29963;44.594;11.368;2023-07-28T14:41:30;31.50;73.80
44271;DHT22;29963;44.594;11.368;2023-07-28T14:43:56;31.40;75.80
44271;DHT22;29963;44.594;11.368;2023-07-28T14:46:22;31.50;75.10
44271;DHT22;29963;44.594;11.368;2023-07-28T14:48:53;31.70;75.30
44271;DHT22;29963;44.594;11.368;2023-07-28T14:51:18;32.00;75.20
44271;DHT22;29963;44.594;11.368;2023-07-28T14:53:44;32.20;73.50
44271;DHT22;29963;44.594;11.368;2023-07-28T14:56:13;32.20;72.50
44271;DHT22;29963;44.594;11.368;2023-07-28T14:58:40;32.20;73.20
44271;DHT22;29963;44.594;11.368;2023-07-28T15:01:10;32.30;72.30
44271;DHT22;29963;44.594;11.368;2023-07-28T15:03:36;32.60;73.80
44271;DHT22;29963;44.594;11.368;2023-07-28T15:06:02;32.90;71.80
44271;DHT22;29963;44.594;11.368;2023-07-28T15:08:29;33.00;71.50
44271;DHT22;29963;44.594;11.368;2023-07-28T15:10:55;33.10;72.30
44271;DHT22;29963;44.594;11.368;2023-07-28T15:13:21;33.30;73.00
44271;DHT22;29963;44.594;11.368;2023-07-28T15:15:47;33.50;69.80